Time;durP1;ratioP1;P1;durP2;ratioP2;P2;SDS_P1;SDS_P2;PMS_P1;PMS_P2;Temp;Humidity;BMP_temperature;BMP_pressure;BME280_temperature;BME280_humidity;BME280_pressure;Samples;Min_cycle;Max_cycle;Signal;HPM_P1;HPM_P2
2023/06/19 00:03:06;;;;;;;11.43;6.82;;;;;16.40;96094.00;;;;8354272;28;20252;-72
2023/06/19 00:07:09;;;;;;;9.13;6.97;;;;;16.50;96103.00;;;;8345093;28;20718;-71
2023/06/19 00:11:15;;;;;;;10.10;7.50;;;;;16.60;96101.00;;;;8356134;28;20291;-71
2023/06/19 00:15:21;;;;;;;10.00;7.47;;;;;16.60;96099.00;;;;8348602;28;20209;-71
2023/06/19 00:19:27;;;;;;;8.80;7.43;;;;;16.60;96094.00;;;;8352784;28;20262;-71
2023/06/19 00:23:30;;;;;;;10.27;7.25;;;;;16.60;96101.00;;;;8355514;28;20690;-71
2023/06/19 00:27:35;;;;;;;13.63;8.13;;;;;16.60;96096.00;;;;8353978;28;20597;-70
2023/06/19 00:31:38;;;;;;;9.93;7.55;;;;;16.50;96090.00;;;;8349379;28;20802;-71
2023/06/19 00:35:43;;;;;;;11.35;7.78;;;;;16.50;96074.00;;;;8346897;28;20225;-72
2023/06/19 00:39:46;;;;;;;10.93;7.80;;;;;16.50;96082.00;;;;8346289;28;20222;-71
2023/06/19 00:43:52;;;;;;;10.45;6.80;;;;;16.50;96084.00;;;;8347634;28;20236;-71
2023/06/19 00:47:57;;;;;;;13.27;8.55;;;;;16.70;96086.00;;;;8354238;28;20788;-72
2023/06/19 00:52:01;;;;;;;10.93;7.50;;;;;16.80;96090.00;;;;8353200;28;20200;-73
2023/06/19 00:56:05;;;;;;;8.82;6.90;;;;;16.80;96090.00;;;;8356512;28;20315;-72
2023/06/19 01:00:14;;;;;;;10.35;7.45;;;;;16.80;96082.00;;;;8343936;28;20682;-72
2023/06/19 01:04:17;;;;;;;10.82;6.97;;;;;16.70;96075.00;;;;8355025;28;20268;-72
2023/06/19 01:08:34;;;;;;;15.45;7.18;;;;;16.80;96074.00;;;;8354983;28;20200;-72
2023/06/19 01:12:48;;;;;;;8.38;7.38;;;;;17.00;96078.00;;;;8346975;28;20195;-72
2023/06/19 01:16:52;;;;;;;9.95;6.55;;;;;17.20;96076.00;;;;8355236;28;20831;-71
2023/06/19 01:20:56;;;;;;;8.45;7.07;;;;;17.30;96072.00;;;;8352982;28;20930;-71
2023/06/19 01:25:00;;;;;;;9.10;7.38;;;;;17.20;96071.00;;;;8357033;28;20614;-72
2023/06/19 01:29:05;;;;;;;11.18;7.82;;;;;17.00;96071.00;;;;8339338;28;20296;-72
2023/06/19 01:33:13;;;;;;;10.55;7.72;;;;;16.90;96080.00;;;;8348984;28;20220;-72
2023/06/19 01:37:17;;;;;;;10.55;7.38;;;;;16.70;96078.00;;;;8350504;28;20630;-71
2023/06/19 01:41:25;;;;;;;13.85;7.95;;;;;16.50;96076.00;;;;8351216;28;20638;-71
2023/06/19 01:45:31;;;;;;;10.85;8.30;;;;;16.30;96079.00;;;;8350486;28;20280;-71
2023/06/19 01:49:35;;;;;;;11.35;8.23;;;;;16.20;96082.00;;;;8352073;28;20213;-70
2023/06/19 01:53:38;;;;;;;10.43;8.00;;;;;16.10;96074.00;;;;8349936;28;20220;-69
2023/06/19 01:57:47;;;;;;;10.85;7.20;;;;;16.10;96081.00;;;;8348723;28;20310;-70
2023/06/19 02:01:50;;;;;;;11.60;7.63;;;;;16.20;96090.00;;;;8353052;28;20196;-69
2023/06/19 02:05:55;;;;;;;10.35;7.30;;;;;16.30;96092.00;;;;8317211;28;20205;-69
2023/06/19 02:10:01;;;;;;;10.25;6.75;;;;;16.50;96087.00;;;;8350599;28;20287;-70
2023/06/19 02:14:08;;;;;;;10.43;7.43;;;;;16.60;96086.00;;;;8341806;28;20204;-71
2023/06/19 02:18:13;;;;;;;11.75;7.43;;;;;16.80;96094.00;;;;8359009;28;20380;-71
2023/06/19 02:22:21;;;;;;;11.75;7.72;;;;;16.90;96095.00;;;;8349964;28;20216;-70
2023/06/19 02:26:33;;;;;;;9.65;7.70;;;;;17.00;96101.00;;;;8355823;28;20201;-71
2023/06/19 02:30:37;;;;;;;8.65;7.50;;;;;17.00;96103.00;;;;8352298;28;20200;-70
2023/06/19 02:34:42;;;;;;;12.77;7.80;;;;;16.90;96100.00;;;;8354896;28;20300;-71
2023/06/19 02:38:47;;;;;;;10.10;8.10;;;;;16.90;96100.00;;;;8347981;28;20765;-70
2023/06/19 02:42:51;;;;;;;11.13;7.57;;;;;16.80;96103.00;;;;8351205;28;20801;-70
2023/06/19 02:47:01;;;;;;;9.52;7.70;;;;;16.80;96100.00;;;;8354186;28;20283;-71
2023/06/19 02:51:07;;;;;;;11.52;7.97;;;;;16.80;96115.00;;;;8351124;28;20677;-70
2023/06/19 02:55:15;;;;;;;9.07;7.32;;;;;16.90;96118.00;;;;8349179;28;20706;-72
2023/06/19 02:59:18;;;;;;;9.88;7.35;;;;;17.00;96138.00;;;;8347323;28;20400;-74
2023/06/19 03:03:27;;;;;;;11.20;8.20;;;;;16.90;96137.00;;;;8401210;23;20235;-93
2023/06/19 03:07:35;;;;;;;10.13;8.05;;;;;16.70;96135.00;;;;8447136;28;20203;-93
2023/06/19 03:11:39;;;;;;;12.13;7.97;;;;;16.70;96137.00;;;;8447160;28;20514;-94
2023/06/19 03:15:44;;;;;;;11.82;7.97;;;;;16.70;96138.00;;;;8447716;28;20248;-94
2023/06/19 03:20:00;;;;;;;12.27;7.93;;;;;16.80;96144.00;;;;8424369;28;20287;-94
2023/06/19 03:24:06;;;;;;;11.10;8.07;;;;;17.00;96140.00;;;;8447936;28;20203;-94
2023/06/19 03:28:14;;;;;;;11.57;7.80;;;;;17.10;96135.00;;;;8455401;28;20282;-94
2023/06/19 03:32:21;;;;;;;7.88;6.97;;;;;17.30;96125.00;;;;8455078;28;20342;-94
2023/06/19 03:36:31;;;;;;;9.95;7.18;;;;;17.60;96141.00;;;;8452851;28;20206;-94
2023/06/19 03:40:39;;;;;;;10.98;7.47;;;;;17.90;96146.00;;;;8452465;28;20203;-95
2023/06/19 03:44:44;;;;;;;10.20;7.35;;;;;18.10;96168.00;;;;8436690;28;20206;-94
2023/06/19 03:48:51;;;;;;;9.38;7.22;;;;;18.10;96167.00;;;;8453892;28;20229;-94
2023/06/19 03:53:04;;;;;;;12.27;8.70;;;;;18.20;96167.00;;;;8449426;28;20676;-94
2023/06/19 03:57:11;;;;;;;11.90;7.85;;;;;18.20;96159.00;;;;8450187;28;20302;-94
2023/06/19 04:01:17;;;;;;;10.65;7.57;;;;;18.10;96163.00;;;;8450773;28;20218;-94
2023/06/19 04:05:24;;;;;;;9.27;7.28;;;;;18.00;96170.00;;;;8450333;28;20625;-94
2023/06/19 04:09:36;;;;;;;12.20;8.48;;;;;18.00;96150.00;;;;8450152;28;20228;-95
2023/06/19 04:18:08;;;;;;;12.98;8.23;;;;;17.80;96166.00;;;;8440591;28;20211;-94
2023/06/19 04:22:25;;;;;;;11.40;8.57;;;;;17.90;96156.00;;;;8418764;28;20215;-95
2023/06/19 04:27:01;;;;;;;12.05;7.80;;;;;18.10;96158.00;;;;8417487;28;20188;-95
2023/06/19 04:31:18;;;;;;;12.43;7.65;;;;;18.20;96170.00;;;;8430417;28;20203;-94
2023/06/19 04:35:39;;;;;;;12.82;7.43;;;;;18.30;96163.00;;;;8434380;28;20212;-94
2023/06/19 04:39:57;;;;;;;10.13;6.80;;;;;18.50;96169.00;;;;8416701;28;20311;-94
2023/06/19 04:44:06;;;;;;;8.80;6.85;;;;;18.80;96173.00;;;;8414871;28;20203;-94
2023/06/19 04:48:14;;;;;;;8.23;6.78;;;;;19.00;96172.00;;;;8413770;28;20192;-94
2023/06/19 04:52:26;;;;;;;9.95;7.45;;;;;19.20;96179.00;;;;8414577;28;20234;-94
2023/06/19 04:56:34;;;;;;;12.07;7.95;;;;;19.40;96174.00;;;;8414389;28;20192;-95
2023/06/19 05:00:40;;;;;;;9.48;7.60;;;;;19.60;96173.00;;;;8413846;28;20208;-95
2023/06/19 05:05:23;;;;;;;9.48;7.40;;;;;19.80;96175.00;;;;8415580;28;20200;-94
2023/06/19 05:09:30;;;;;;;9.23;7.57;;;;;20.10;96190.00;;;;8414372;28;20207;-94
2023/06/19 05:13:48;;;;;;;9.05;6.82;;;;;20.40;96181.00;;;;8413705;28;20238;-95
2023/06/19 05:17:54;;;;;;;9.63;7.57;;;;;20.50;96202.00;;;;8415118;28;20315;-95
2023/06/19 05:22:06;;;;;;;14.40;8.23;;;;;20.70;96201.00;;;;8418812;28;20200;-95
2023/06/19 05:26:21;;;;;;;12.75;8.05;;;;;20.60;96209.00;;;;8411284;28;20180;-94
2023/06/19 05:30:28;;;;;;;11.63;7.43;;;;;20.70;96207.00;;;;8435007;28;20199;-94
2023/06/19 05:34:33;;;;;;;11.65;7.70;;;;;20.90;96207.00;;;;8435064;28;20211;-94
2023/06/19 05:38:39;;;;;;;11.20;7.07;;;;;21.40;96204.00;;;;8411336;28;20231;-95
2023/06/19 05:42:45;;;;;;;11.68;7.50;;;;;22.30;96210.00;;;;8411484;28;20567;-94
2023/06/19 05:46:50;;;;;;;9.93;6.82;;;;;23.00;96210.00;;;;8410965;28;20231;-95
2023/06/19 05:50:54;;;;;;;13.43;7.05;;;;;23.70;96216.00;;;;8409875;28;20531;-95
2023/06/19 05:54:59;;;;;;;16.55;7.05;;;;;23.80;96215.00;;;;8409912;28;20196;-95
2023/06/19 05:59:08;;;;;;;16.17;7.00;;;;;23.90;96215.00;;;;8408610;28;20262;-96
2023/06/19 06:03:13;;;;;;;21.25;7.65;;;;;23.90;96234.00;;;;8410795;28;20287;-94
2023/06/19 06:07:17;;;;;;;11.05;6.65;;;;;23.90;96263.00;;;;8408954;28;20299;-95
2023/06/19 06:11:21;;;;;;;10.18;7.55;;;;;23.80;96267.00;;;;8409474;28;20203;-94
2023/06/19 06:15:27;;;;;;;11.43;7.53;;;;;23.70;96263.00;;;;8414636;28;20203;-93
2023/06/19 06:19:34;;;;;;;11.52;6.82;;;;;23.60;96270.00;;;;8442287;28;20219;-95
2023/06/19 06:23:39;;;;;;;10.15;7.10;;;;;23.60;96273.00;;;;8442783;28;20210;-95
2023/06/19 06:27:46;;;;;;;12.55;7.57;;;;;24.30;96276.00;;;;8442333;28;20191;-95
2023/06/19 06:31:52;;;;;;;10.38;6.97;;;;;25.40;96282.00;;;;8442747;28;20211;-95
2023/06/19 06:35:56;;;;;;;10.30;7.68;;;;;26.70;96283.00;;;;8443112;28;20191;-95
2023/06/19 06:40:08;;;;;;;9.02;7.30;;;;;27.90;96294.00;;;;8442230;28;20268;-95
2023/06/19 06:44:13;;;;;;;10.07;7.30;;;;;28.60;96291.00;;;;8441920;28;20252;-95
2023/06/19 06:48:30;;;;;;;10.68;6.82;;;;;28.80;96298.00;;;;8443845;28;20215;-96
2023/06/19 06:52:34;;;;;;;11.52;7.28;;;;;28.70;96303.00;;;;8443096;28;20192;-95
2023/06/19 06:56:38;;;;;;;7.63;6.55;;;;;28.80;96301.00;;;;8444777;28;20214;-95
2023/06/19 07:00:41;;;;;;;11.07;7.05;;;;;28.70;96310.00;;;;8445541;28;20211;-95
2023/06/19 07:04:48;;;;;;;8.57;6.78;;;;;28.30;96306.00;;;;8449553;28;20190;-96
2023/06/19 07:08:52;;;;;;;8.77;7.13;;;;;28.10;96310.00;;;;8453571;28;20229;-93
2023/06/19 07:13:00;;;;;;;8.63;6.90;;;;;27.90;96311.00;;;;8449674;28;20218;-94
2023/06/19 07:17:07;;;;;;;11.98;6.85;;;;;27.80;96307.00;;;;8452056;28;20187;-95
2023/06/19 07:21:13;;;;;;;11.55;7.38;;;;;27.70;96307.00;;;;8451398;28;20211;-94
2023/06/19 07:25:25;;;;;;;9.07;6.97;;;;;27.90;96315.00;;;;8450657;28;20207;-94
2023/06/19 07:29:30;;;;;;;18.63;7.22;;;;;28.20;96316.00;;;;8449744;28;20195;-95
2023/06/19 07:33:36;;;;;;;9.18;7.43;;;;;29.10;96304.00;;;;8453408;28;20200;-94
2023/06/19 07:37:41;;;;;;;10.85;7.15;;;;;30.10;96316.00;;;;8449113;28;20199;-95
2023/06/19 07:41:47;;;;;;;8.30;6.90;;;;;30.30;96313.00;;;;8450353;28;20561;-95
2023/06/19 07:45:51;;;;;;;10.45;7.97;;;;;30.60;96318.00;;;;8448114;28;20645;-95
2023/06/19 07:49:55;;;;;;;7.97;7.18;;;;;30.60;96313.00;;;;8446488;28;20195;-94
2023/06/19 07:54:05;;;;;;;9.20;7.38;;;;;30.60;96308.00;;;;8446063;28;20658;-95
2023/06/19 07:58:18;;;;;;;8.90;6.95;;;;;30.50;96315.00;;;;8448304;28;20215;-95
2023/06/19 08:02:24;;;;;;;13.65;6.95;;;;;30.50;96320.00;;;;8447583;28;20211;-96
2023/06/19 08:06:33;;;;;;;11.50;7.47;;;;;30.60;96315.00;;;;8433242;28;20682;-95
2023/06/19 08:10:42;;;;;;;7.82;6.78;;;;;30.50;96315.00;;;;8449097;28;20205;-94
2023/06/19 08:14:51;;;;;;;9.57;6.82;;;;;30.50;96317.00;;;;8450624;28;20266;-95
2023/06/19 08:18:59;;;;;;;13.43;7.30;;;;;30.40;96321.00;;;;8447793;28;20585;-95
2023/06/19 08:23:10;;;;;;;8.52;7.00;;;;;30.70;96326.00;;;;8447698;28;20228;-94
2023/06/19 08:27:19;;;;;;;15.52;7.20;;;;;31.30;96336.00;;;;8448175;28;20196;-95
2023/06/19 08:31:27;;;;;;;54.20;20.75;;;;;30.60;96336.00;;;;8447363;28;20298;-94
2023/06/19 08:35:31;;;;;;;23.63;12.30;;;;;30.10;96348.00;;;;8446705;28;20200;-93
2023/06/19 08:39:39;;;;;;;9.07;6.85;;;;;29.50;96356.00;;;;8446690;28;20223;-93
2023/06/19 08:43:45;;;;;;;6.28;5.28;;;;;28.70;96351.00;;;;8447239;28;20200;-94
2023/06/19 08:47:50;;;;;;;9.52;6.97;;;;;28.20;96352.00;;;;8448427;28;20534;-95
2023/06/19 08:51:54;;;;;;;15.15;7.50;;;;;28.00;96357.00;;;;8450087;28;20264;-95
2023/06/19 08:56:05;;;;;;;10.15;7.40;;;;;28.00;96362.00;;;;8449060;28;20252;-96
2023/06/19 09:00:23;;;;;;;7.10;5.90;;;;;28.10;96358.00;;;;8449739;28;20215;-96
2023/06/19 09:04:32;;;;;;;6.93;6.18;;;;;28.00;96367.00;;;;8449574;28;20214;-96
2023/06/19 09:08:40;;;;;;;10.18;6.10;;;;;27.80;96373.00;;;;8433882;28;20582;-96
2023/06/19 09:13:01;;;;;;;8.40;5.45;;;;;27.40;96382.00;;;;8449376;28;20262;-95
2023/06/19 09:17:24;;;;;;;7.85;4.97;;;;;26.90;96389.00;;;;8448405;28;20195;-95
2023/06/19 09:21:32;;;;;;;5.93;5.43;;;;;26.70;96381.00;;;;8449487;28;20276;-95
2023/06/19 09:25:48;;;;;;;6.95;5.10;;;;;26.60;96371.00;;;;8447474;28;20200;-94
2023/06/19 09:29:56;;;;;;;7.75;5.05;;;;;26.60;96369.00;;;;8447947;28;20199;-95
2023/06/19 09:34:07;;;;;;;7.63;5.13;;;;;26.50;96370.00;;;;8449649;28;20581;-94
2023/06/19 09:38:18;;;;;;;8.95;5.50;;;;;26.50;96363.00;;;;8448573;28;20184;-95
2023/06/19 09:42:30;;;;;;;7.15;5.40;;;;;26.50;96368.00;;;;8446083;28;20222;-95
2023/06/19 09:46:52;;;;;;;9.20;5.97;;;;;25.90;96362.00;;;;8449337;28;20207;-95
2023/06/19 09:51:31;;;;;;;8.70;6.10;;;;;25.40;96364.00;;;;8448190;28;20195;-95
2023/06/19 09:55:43;;;;;;;7.55;5.40;;;;;25.90;96357.00;;;;8447978;28;20199;-95
2023/06/19 10:00:05;;;;;;;7.93;5.03;;;;;26.70;96364.00;;;;8450042;28;20223;-95
2023/06/19 10:04:16;;;;;;;6.00;4.95;;;;;27.00;96358.00;;;;8450167;28;20215;-96
2023/06/19 10:08:33;;;;;;;5.53;5.03;;;;;27.10;96356.00;;;;8447873;28;20225;-95
2023/06/19 10:12:43;;;;;;;5.38;4.80;;;;;27.40;96356.00;;;;8447319;28;20191;-95
2023/06/19 10:16:49;;;;;;;6.68;4.93;;;;;28.00;96362.00;;;;8445372;28;20203;-96
2023/06/19 10:21:01;;;;;;;6.30;5.15;;;;;28.50;96360.00;;;;8446108;28;20264;-95
2023/06/19 10:25:23;;;;;;;5.88;5.38;;;;;29.60;96366.00;;;;8446310;28;20203;-95
2023/06/19 10:29:41;;;;;;;5.25;4.47;;;;;30.20;96368.00;;;;8445842;28;20230;-95
2023/06/19 10:34:07;;;;;;;4.20;3.90;;;;;30.70;96364.00;;;;8447472;28;20195;-95
2023/06/19 10:42:59;;;;;;;5.43;3.97;;;;;30.80;96358.00;;;;8455395;28;20191;-96
2023/06/19 10:47:09;;;;;;;4.20;3.80;;;;;31.10;96353.00;;;;8452539;28;20633;-96
2023/06/19 10:51:25;;;;;;;4.50;4.10;;;;;31.50;96350.00;;;;8454201;28;20218;-95
2023/06/19 10:55:31;;;;;;;4.60;4.20;;;;;31.60;96354.00;;;;8451373;28;20241;-96
2023/06/19 10:59:43;;;;;;;6.10;3.85;;;;;31.70;96355.00;;;;8452531;28;20257;-95
2023/06/19 11:03:51;;;;;;;4.80;3.90;;;;;31.20;96359.00;;;;8450215;28;20231;-96
2023/06/19 11:08:09;;;;;;;5.38;4.10;;;;;30.80;96347.00;;;;8450638;28;20199;-95
2023/06/19 11:12:34;;;;;;;5.30;3.95;;;;;30.40;96345.00;;;;8451433;28;20291;-96
2023/06/19 11:16:46;;;;;;;4.25;3.85;;;;;30.70;96352.00;;;;8451684;28;20203;-96
2023/06/19 11:20:56;;;;;;;5.85;4.18;;;;;31.00;96348.00;;;;8450623;28;20266;-95
2023/06/19 11:25:10;;;;;;;4.72;4.30;;;;;31.40;96349.00;;;;8450996;28;20199;-96
2023/06/19 11:29:29;;;;;;;4.35;3.92;;;;;32.80;96337.00;;;;8453263;28;20196;-96
2023/06/19 11:33:39;;;;;;;4.25;3.95;;;;;34.60;96341.00;;;;8448166;28;20210;-95
2023/06/19 11:37:49;;;;;;;4.47;4.18;;;;;35.60;96346.00;;;;8450121;28;20187;-96
2023/06/19 11:42:00;;;;;;;3.95;3.65;;;;;36.80;96339.00;;;;8451314;28;20250;-96
2023/06/19 11:46:12;;;;;;;4.93;3.90;;;;;37.70;96335.00;;;;8451523;28;20207;-96
2023/06/19 11:50:28;;;;;;;4.38;4.03;;;;;37.90;96321.00;;;;8450739;28;20195;-95
2023/06/19 11:54:52;;;;;;;4.15;3.85;;;;;37.60;96328.00;;;;8450437;28;20198;-95
2023/06/19 11:59:01;;;;;;;5.28;4.00;;;;;37.30;96318.00;;;;8443337;28;20207;-95
2023/06/19 12:03:21;;;;;;;5.88;4.43;;;;;37.60;96316.00;;;;8449545;28;20626;-95
2023/06/19 12:07:39;;;;;;;5.32;3.65;;;;;38.20;96308.00;;;;8450759;28;20195;-94
2023/06/19 12:11:47;;;;;;;3.70;3.40;;;;;38.60;96303.00;;;;8444668;28;20200;-96
2023/06/19 12:15:51;;;;;;;4.53;3.55;;;;;38.90;96298.00;;;;8449845;28;20692;-96
2023/06/19 12:24:32;;;;;;;3.75;3.30;;;;;40.00;96289.00;;;;8453669;28;20202;-95
2023/06/19 12:28:43;;;;;;;3.85;3.47;;;;;40.20;96285.00;;;;8450313;28;20203;-96
2023/06/19 12:32:51;;;;;;;3.78;3.28;;;;;39.90;96285.00;;;;8452712;28;20203;-96
2023/06/19 12:37:02;;;;;;;3.47;3.28;;;;;40.00;96291.00;;;;8449409;28;20202;-96
2023/06/19 12:41:19;;;;;;;3.63;3.30;;;;;40.20;96289.00;;;;8444485;28;20199;-96
2023/06/19 12:45:29;;;;;;;3.92;3.03;;;;;40.20;96290.00;;;;8446444;28;20217;-96
2023/06/19 12:49:43;;;;;;;3.25;3.05;;;;;39.90;96296.00;;;;8450531;28;20256;-96
2023/06/19 12:53:49;;;;;;;8.73;3.30;;;;;39.50;96299.00;;;;8446478;28;20195;-96
2023/06/19 12:58:05;;;;;;;2.75;2.55;;;;;38.80;96290.00;;;;8446740;28;20385;-96
2023/06/19 13:02:27;;;;;;;3.60;3.15;;;;;38.00;96285.00;;;;8449226;28;20231;-96
2023/06/19 13:06:34;;;;;;;4.55;3.13;;;;;37.30;96275.00;;;;8444679;28;20210;-96
2023/06/19 13:10:40;;;;;;;3.70;3.35;;;;;36.50;96275.00;;;;8447747;28;20224;-96
2023/06/19 13:14:51;;;;;;;3.22;2.90;;;;;36.40;96280.00;;;;8448143;28;20569;-95
2023/06/19 13:19:02;;;;;;;3.72;3.40;;;;;36.40;96273.00;;;;8444191;28;20191;-95
2023/06/19 13:23:13;;;;;;;3.78;3.47;;;;;37.50;96269.00;;;;8448151;28;20215;-96
2023/06/19 13:27:25;;;;;;;3.72;3.42;;;;;38.60;96263.00;;;;8442528;28;20245;-94
2023/06/19 13:31:36;;;;;;;3.30;3.10;;;;;39.50;96260.00;;;;8442346;28;20200;-96
2023/06/19 13:35:47;;;;;;;5.35;3.53;;;;;39.80;96264.00;;;;8446498;28;20203;-96
2023/06/19 13:39:56;;;;;;;3.70;3.40;;;;;39.90;96254.00;;;;8446406;28;20240;-96
2023/06/19 13:44:04;;;;;;;3.20;3.00;;;;;39.90;96250.00;;;;8473321;22;20200;-70
2023/06/19 13:48:11;;;;;;;3.35;3.13;;;;;40.30;96251.00;;;;8342340;28;20721;-68
2023/06/19 13:52:18;;;;;;;3.60;3.30;;;;;40.60;96257.00;;;;8359596;28;20535;-68
2023/06/19 13:56:23;;;;;;;3.47;3.28;;;;;40.60;96246.00;;;;8372471;28;20299;-68
2023/06/19 14:00:26;;;;;;;3.13;2.92;;;;;40.50;96246.00;;;;8349824;28;20243;-69
2023/06/19 14:04:33;;;;;;;3.35;3.03;;;;;40.60;96239.00;;;;8369392;28;20302;-68
2023/06/19 14:08:37;;;;;;;3.60;3.30;;;;;39.50;96230.00;;;;8376311;28;20220;-70
2023/06/19 14:12:40;;;;;;;3.97;3.58;;;;;39.00;96240.00;;;;8369244;28;20706;-68
2023/06/19 14:16:44;;;;;;;3.20;3.00;;;;;39.30;96220.00;;;;8356889;28;20569;-68
2023/06/19 14:20:48;;;;;;;3.60;3.30;;;;;39.40;96213.00;;;;8359669;28;20251;-68
2023/06/19 14:24:58;;;;;;;3.20;3.00;;;;;39.50;96214.00;;;;8366997;28;20287;-69
2023/06/19 14:29:01;;;;;;;3.42;3.22;;;;;39.80;96213.00;;;;8381738;28;20192;-68
2023/06/19 14:33:10;;;;;;;5.13;4.10;;;;;40.20;96209.00;;;;8367397;28;20220;-68
2023/06/19 14:37:15;;;;;;;4.28;3.88;;;;;40.70;96213.00;;;;8360833;28;20192;-68
2023/06/19 14:41:18;;;;;;;3.78;3.58;;;;;40.70;96219.00;;;;8374005;28;21005;-67
2023/06/19 14:45:22;;;;;;;4.32;3.72;;;;;40.90;96220.00;;;;8379134;28;20208;-67
2023/06/19 14:49:37;;;;;;;4.78;3.30;;;;;41.30;96208.00;;;;8355111;28;20271;-67
2023/06/19 14:53:43;;;;;;;3.60;3.40;;;;;41.50;96209.00;;;;8373184;28;20913;-67
2023/06/19 14:57:47;;;;;;;4.32;3.60;;;;;41.30;96214.00;;;;8371955;28;20228;-67
2023/06/19 15:01:53;;;;;;;4.10;3.78;;;;;41.00;96209.00;;;;8363645;28;20315;-67
2023/06/19 15:05:56;;;;;;;4.30;4.00;;;;;39.80;96201.00;;;;8351447;28;20193;-68
2023/06/19 15:10:04;;;;;;;3.78;3.47;;;;;39.00;96195.00;;;;8368709;28;20288;-69
2023/06/19 15:14:07;;;;;;;3.97;3.67;;;;;38.20;96195.00;;;;8360540;28;20201;-67
2023/06/19 15:18:13;;;;;;;3.85;3.55;;;;;37.40;96193.00;;;;8366343;28;20286;-66
2023/06/19 15:22:16;;;;;;;3.92;3.50;;;;;36.50;96188.00;;;;8359411;28;20837;-66
2023/06/19 15:26:23;;;;;;;4.15;3.85;;;;;36.00;96178.00;;;;8362948;28;20204;-66
2023/06/19 15:30:29;;;;;;;4.13;3.67;;;;;35.20;96178.00;;;;8391216;28;20287;-69
2023/06/19 15:34:32;;;;;;;4.50;4.10;;;;;35.30;96174.00;;;;8374800;28;20299;-69
2023/06/19 15:38:35;;;;;;;3.75;3.45;;;;;35.60;96179.00;;;;8373705;28;20197;-68
2023/06/19 15:42:41;;;;;;;4.85;4.20;;;;;35.60;96181.00;;;;8364027;28;20227;-66
2023/06/19 15:46:49;;;;;;;4.00;3.70;;;;;35.40;96181.00;;;;8366299;28;20298;-66
2023/06/19 15:50:52;;;;;;;7.72;3.90;;;;;35.30;96185.00;;;;8361522;28;20201;-66
2023/06/19 15:54:55;;;;;;;4.72;4.25;;;;;34.90;96185.00;;;;8365936;28;20287;-66
2023/06/19 15:59:04;;;;;;;5.60;4.00;;;;;34.90;96179.00;;;;8361801;28;20285;-66
2023/06/19 16:03:07;;;;;;;4.82;4.07;;;;;35.20;96173.00;;;;8370107;28;20311;-66
2023/06/19 16:07:11;;;;;;;4.70;4.30;;;;;35.80;96170.00;;;;8361069;28;20572;-70
2023/06/19 16:11:14;;;;;;;4.47;4.18;;;;;36.50;96165.00;;;;8361311;28;20621;-67
2023/06/19 16:15:27;;;;;;;4.00;3.70;;;;;36.70;96164.00;;;;8375064;28;20205;-67
2023/06/19 16:19:30;;;;;;;4.10;3.80;;;;;36.60;96162.00;;;;8382133;28;20659;-67
2023/06/19 16:23:34;;;;;;;6.55;4.05;;;;;36.70;96153.00;;;;8382853;28;21012;-68
2023/06/19 16:27:37;;;;;;;3.90;3.60;;;;;36.70;96158.00;;;;8367145;28;20280;-67
2023/06/19 16:31:42;;;;;;;5.43;3.83;;;;;36.80;96155.00;;;;8367767;28;20293;-67
2023/06/19 16:35:58;;;;;;;6.72;3.95;;;;;36.30;96146.00;;;;8381383;28;20203;-67
2023/06/19 16:40:05;;;;;;;3.72;3.53;;;;;35.70;96147.00;;;;8379405;28;20284;-68
2023/06/19 16:44:08;;;;;;;4.07;3.78;;;;;35.20;96154.00;;;;8360879;28;20780;-68
2023/06/19 16:48:14;;;;;;;9.65;4.50;;;;;34.90;96156.00;;;;8379916;28;20243;-66
2023/06/19 16:52:22;;;;;;;12.02;4.25;;;;;34.60;96162.00;;;;8385276;28;20560;-66
2023/06/19 16:56:26;;;;;;;5.05;4.50;;;;;34.40;96162.00;;;;8365136;28;20230;-66
2023/06/19 17:00:29;;;;;;;8.75;4.25;;;;;34.10;96163.00;;;;8371409;28;20295;-66
2023/06/19 17:04:37;;;;;;;4.38;3.90;;;;;33.90;96166.00;;;;8360177;28;20231;-66
2023/06/19 17:08:45;;;;;;;5.70;3.70;;;;;33.60;96170.00;;;;8359110;28;20201;-67
2023/06/19 17:12:50;;;;;;;5.18;3.90;;;;;33.50;96172.00;;;;8367747;28;20741;-66
2023/06/19 17:16:54;;;;;;;4.68;4.38;;;;;33.40;96169.00;;;;8359499;28;20315;-66
2023/06/19 17:20:59;;;;;;;4.43;4.10;;;;;33.20;96174.00;;;;8374123;28;20224;-66
2023/06/19 17:25:04;;;;;;;4.57;4.18;;;;;33.10;96175.00;;;;8375105;28;20262;-66
2023/06/19 17:29:09;;;;;;;5.00;4.10;;;;;33.00;96166.00;;;;8374741;28;20658;-66
2023/06/19 17:33:13;;;;;;;4.38;4.07;;;;;32.80;96174.00;;;;8365641;28;20287;-66
2023/06/19 17:37:18;;;;;;;4.78;4.03;;;;;32.70;96181.00;;;;8376329;28;20705;-66
2023/06/19 17:41:22;;;;;;;5.78;4.47;;;;;32.50;96176.00;;;;8370231;28;20254;-66
2023/06/19 17:45:26;;;;;;;4.97;3.85;;;;;32.30;96177.00;;;;8366795;28;20209;-66
2023/06/19 17:49:32;;;;;;;5.15;4.43;;;;;32.30;96179.00;;;;8361826;28;20271;-67
2023/06/19 17:53:36;;;;;;;5.07;4.45;;;;;32.20;96172.00;;;;8367512;28;20208;-67
2023/06/19 17:57:40;;;;;;;4.28;3.90;;;;;32.10;96181.00;;;;8356695;28;20692;-66
2023/06/19 18:01:47;;;;;;;5.88;4.40;;;;;32.00;96180.00;;;;8368820;28;20231;-66
2023/06/19 18:05:50;;;;;;;4.10;3.80;;;;;31.80;96174.00;;;;8362637;28;20230;-67
2023/06/19 18:09:58;;;;;;;5.03;4.47;;;;;31.70;96180.00;;;;8361656;28;20204;-66
2023/06/19 18:14:04;;;;;;;6.53;4.35;;;;;31.50;96175.00;;;;8337329;28;20626;-67
2023/06/19 18:18:11;;;;;;;5.80;3.92;;;;;31.20;96174.00;;;;8353885;28;20275;-67
2023/06/19 18:22:14;;;;;;;6.32;4.65;;;;;31.00;96176.00;;;;8373496;28;20217;-67
2023/06/19 18:26:21;;;;;;;5.82;4.45;;;;;30.70;96175.00;;;;8352382;28;20299;-66
2023/06/19 18:30:25;;;;;;;5.00;4.50;;;;;30.40;96174.00;;;;8363395;28;20205;-66
2023/06/19 18:34:32;;;;;;;4.88;4.47;;;;;30.20;96170.00;;;;8369359;28;20196;-67
2023/06/19 18:38:36;;;;;;;5.25;4.82;;;;;29.90;96166.00;;;;8363410;28;20203;-67
2023/06/19 18:42:40;;;;;;;5.72;4.60;;;;;29.70;96161.00;;;;8360781;28;20220;-67
2023/06/19 18:46:44;;;;;;;5.22;4.72;;;;;29.40;96159.00;;;;8356535;28;20303;-66
2023/06/19 18:50:50;;;;;;;5.35;4.85;;;;;29.10;96161.00;;;;8351708;28;20637;-66
2023/06/19 18:54:56;;;;;;;8.32;5.55;;;;;28.60;96162.00;;;;8342923;28;20207;-66
2023/06/19 18:59:02;;;;;;;4.80;4.40;;;;;28.10;96155.00;;;;8362685;28;20240;-68
2023/06/19 19:03:07;;;;;;;5.43;4.85;;;;;27.60;96160.00;;;;8362404;28;20315;-65
2023/06/19 19:07:11;;;;;;;5.55;5.05;;;;;27.10;96154.00;;;;8362394;28;20335;-64
2023/06/19 19:11:14;;;;;;;6.32;5.60;;;;;26.60;96160.00;;;;8365617;28;20287;-65
2023/06/19 19:15:19;;;;;;;5.63;5.10;;;;;26.10;96162.00;;;;8367361;28;20818;-64
2023/06/19 19:19:22;;;;;;;6.65;5.78;;;;;25.70;96170.00;;;;8356691;28;20230;-65
2023/06/19 19:23:27;;;;;;;7.35;5.53;;;;;25.40;96186.00;;;;8362867;28;20240;-64
2023/06/19 19:27:36;;;;;;;5.70;5.18;;;;;25.10;96182.00;;;;8361930;28;20296;-65
2023/06/19 19:31:41;;;;;;;6.55;5.68;;;;;24.70;96186.00;;;;8362872;28;20188;-65
2023/06/19 19:35:44;;;;;;;9.55;5.72;;;;;24.40;96196.00;;;;8347088;28;20207;-65
2023/06/19 19:39:47;;;;;;;8.15;6.10;;;;;24.00;96207.00;;;;8362406;28;20274;-68
2023/06/19 19:43:50;;;;;;;6.25;5.65;;;;;23.60;96209.00;;;;8361385;28;20347;-65
2023/06/19 19:47:55;;;;;;;6.55;5.95;;;;;23.30;96213.00;;;;8369857;28;20220;-65
2023/06/19 19:51:58;;;;;;;9.02;6.13;;;;;23.10;96219.00;;;;8362679;28;20204;-66
2023/06/19 19:56:01;;;;;;;13.63;6.63;;;;;22.90;96231.00;;;;8370470;28;20197;-65
2023/06/19 20:00:06;;;;;;;8.43;6.10;;;;;22.80;96238.00;;;;8360576;28;20965;-64
2023/06/19 20:04:16;;;;;;;8.00;6.55;;;;;22.70;96232.00;;;;8357947;28;20228;-65
2023/06/19 20:08:20;;;;;;;9.95;6.22;;;;;22.50;96244.00;;;;8361967;28;20859;-66
2023/06/19 20:12:24;;;;;;;9.25;6.25;;;;;22.40;96221.00;;;;8362500;28;20300;-65
2023/06/19 20:16:27;;;;;;;6.95;6.10;;;;;22.20;96217.00;;;;8369231;28;20713;-65
2023/06/19 20:20:39;;;;;;;10.75;6.55;;;;;22.10;96233.00;;;;8365875;28;20200;-64
2023/06/19 20:24:45;;;;;;;8.23;6.47;;;;;21.90;96232.00;;;;8371334;28;20228;-64
2023/06/19 20:28:52;;;;;;;9.00;6.38;;;;;21.90;96219.00;;;;8365846;28;20283;-67
2023/06/19 20:32:56;;;;;;;8.10;6.82;;;;;21.70;96231.00;;;;8363519;28;20200;-64
2023/06/19 20:37:01;;;;;;;7.43;6.63;;;;;21.70;96227.00;;;;8356184;28;20208;-64
2023/06/19 20:41:04;;;;;;;7.13;6.38;;;;;21.50;96221.00;;;;8356145;28;20227;-64
2023/06/19 20:45:08;;;;;;;9.88;6.75;;;;;21.50;96216.00;;;;8373192;28;20319;-63
2023/06/19 20:49:15;;;;;;;13.02;6.50;;;;;21.40;96212.00;;;;8367201;28;20203;-65